Página principal
METAR-TAF:

METAR-TAF

Aeroportos :

Aeroporto Internacional V. C. Bird

Antígua, Antígua e Barbuda

latitude: 17-07N, longitude: 061-47W, altura: 8 m

Observação actual do tempo

O boletim foi feito há 21 minutos, às 11:00 UTC
Vento 4 kt de es-nordeste, variando entre nordeste e es-sudeste
Temperatura 26°C
Humidade 89%
Pressão 1015 hPa
Visibilidade 10 km ou mais
Nuvens dispersasa uma altura de 1800 ft

METAR: TAPA 191100Z 07004KT 040V120 9999 SCT018 26/24 Q1015 NOSIG

Hora: 07:21 (11:21 UTC)

Previsão

O boletim foi feito há 6 horas e 21 minutos, às 05:00 UTC
Previsão válida de 19 às 06 UTC a 20 às 06 UTC
Vento 10 kt de este
Visibilidade 10 km ou mais
Nuvens dispersasa uma altura de 1800 ft
Probabilidade 40% :
Temporariamente
de 19 às 06 UTC a 19 às 14 UTC
aguaceiros de chuva

TAF: TAPA 190500Z 1906/2006 08010KT 9999 SCT018 PROB40 TEMPO 1906/1914 SHRA

Observações e previsões do tempo de mais de 4000 aeroportos (mensagens METAR e TAF).

As estações disponíveis são os pontos amarelos e vermelhos sobre o mapa.

Mova o rato sobre o mapa para ver o nome da estação.

Depois clique no ponto para visualizar as observações e previsões meteorológicas.

Para alterar o mapa : clique nos botões verdes com uma cruz preta para aumentar o zoom; no botão verde com uma pitada de zoom; ou nas setas verdes para mapas adjacentes.


METAR-TAF: